Time;durP1;ratioP1;P1;durP2;ratioP2;P2;SDS_P1;SDS_P2;PMS_P1;PMS_P2;Temp;Humidity;BMP_temperature;BMP_pressure;BME280_temperature;BME280_humidity;BME280_pressure;Samples;Min_cycle;Max_cycle;Signal;HPM_P1;HPM_P2
2021/01/04 00:00:15;;;;;;;6.23;5.63;;;3.60;99.90;;;;;;5063192;28;20796;-70
2021/01/04 00:03:21;;;;;;;5.90;5.40;;;3.50;99.90;;;;;;5039776;28;20663;-70
2021/01/04 00:06:17;;;;;;;7.17;6.33;;;3.50;99.90;;;;;;5051297;28;20441;-70
2021/01/04 00:09:18;;;;;;;6.90;6.10;;;3.50;99.90;;;;;;5039973;28;20418;-71
2021/01/04 00:11:48;;;;;;;6.80;6.13;;;3.50;99.90;;;;;;5051074;28;20936;-71
2021/01/04 00:14:38;;;;;;;7.67;6.83;;;3.60;99.90;;;;;;5047393;28;20815;-70
2021/01/04 00:17:41;;;;;;;8.50;6.70;;;3.50;99.90;;;;;;5039153;28;20487;-70
2021/01/04 00:20:27;;;;;;;7.83;6.87;;;3.50;99.90;;;;;;5036599;28;20458;-70
2021/01/04 00:23:26;;;;;;;7.20;6.40;;;3.40;99.90;;;;;;5044555;28;20485;-70
2021/01/04 00:25:59;;;;;;;9.03;7.37;;;3.50;99.90;;;;;;5048282;28;20511;-70
2021/01/04 00:28:28;;;;;;;7.83;7.00;;;3.40;99.90;;;;;;5048557;28;20429;-71
2021/01/04 00:31:08;;;;;;;7.27;6.33;;;3.40;99.90;;;;;;5038839;28;20503;-71
2021/01/04 00:33:48;;;;;;;8.13;6.80;;;3.40;99.90;;;;;;5048672;28;20528;-70
2021/01/04 00:36:45;;;;;;;8.13;7.20;;;3.40;99.90;;;;;;5046479;28;20465;-70
2021/01/04 00:39:27;;;;;;;8.80;7.10;;;3.40;99.90;;;;;;5034606;28;20809;-70
2021/01/04 00:42:31;;;;;;;8.30;6.90;;;3.60;99.90;;;;;;5035704;28;20475;-70
2021/01/04 00:45:09;;;;;;;8.17;7.27;;;3.50;99.90;;;;;;5040017;28;20442;-70
2021/01/04 00:47:45;;;;;;;7.70;6.87;;;3.60;99.90;;;;;;5047990;28;20496;-70
2021/01/04 00:50:32;;;;;;;8.07;6.87;;;3.60;99.90;;;;;;5054464;28;20417;-70
2021/01/04 00:53:05;;;;;;;7.50;5.60;;;3.60;99.90;;;;;;5054475;28;20425;-70
2021/01/04 00:55:53;;;;;;;6.60;5.90;;;3.50;99.90;;;;;;5042995;28;20445;-70
2021/01/04 00:58:32;;;;;;;7.20;6.50;;;3.50;99.90;;;;;;5035124;28;20812;-70
2021/01/04 01:01:10;;;;;;;7.40;6.70;;;3.50;99.90;;;;;;5035589;28;20853;-70
2021/01/04 01:04:15;;;;;;;6.33;5.43;;;3.60;99.90;;;;;;5043112;28;20511;-71
2021/01/04 01:07:02;;;;;;;6.83;6.23;;;3.60;99.90;;;;;;5047893;28;20439;-70
2021/01/04 01:09:31;;;;;;;6.27;5.67;;;3.60;99.90;;;;;;5035929;28;20422;-70
2021/01/04 01:12:01;;;;;;;7.40;6.80;;;3.60;99.90;;;;;;5049933;28;20429;-70
2021/01/04 01:14:56;;;;;;;6.57;6.07;;;3.60;99.90;;;;;;5045720;28;22005;-70
2021/01/04 01:17:57;;;;;;;7.13;6.47;;;3.60;99.90;;;;;;5052756;28;20749;-70
2021/01/04 01:20:23;;;;;;;6.33;5.73;;;3.50;99.90;;;;;;5045652;28;20863;-70
2021/01/04 01:22:49;;;;;;;7.40;6.70;;;3.60;99.90;;;;;;5053951;28;20418;-70
2021/01/04 01:25:21;;;;;;;7.13;6.53;;;3.70;99.90;;;;;;5053666;28;20621;-70
2021/01/04 01:27:56;;;;;;;10.60;7.27;;;3.60;99.90;;;;;;5046290;28;20175;-70
2021/01/04 01:30:21;;;;;;;7.77;6.97;;;3.50;99.90;;;;;;5044891;28;20516;-70
2021/01/04 01:33:16;;;;;;;7.10;6.40;;;3.50;99.90;;;;;;5060813;28;20476;-72
2021/01/04 01:35:51;;;;;;;7.77;6.97;;;3.50;99.90;;;;;;5055509;28;20201;-70
2021/01/04 01:38:36;;;;;;;8.13;7.33;;;3.40;99.90;;;;;;5071926;28;20464;-71
2021/01/04 01:41:26;;;;;;;8.00;7.20;;;3.50;99.90;;;;;;5069188;28;20480;-70
2021/01/04 01:44:02;;;;;;;7.33;6.63;;;3.40;99.90;;;;;;5066606;28;20463;-70
2021/01/04 01:46:35;;;;;;;7.50;6.70;;;3.40;99.90;;;;;;5045892;28;20462;-70
2021/01/04 01:49:20;;;;;;;8.43;7.60;;;3.50;99.90;;;;;;5053636;28;20474;-70
2021/01/04 01:52:16;;;;;;;8.57;6.83;;;3.50;99.90;;;;;;5043441;28;20416;-70
2021/01/04 01:54:57;;;;;;;8.40;7.30;;;3.40;99.90;;;;;;5043783;28;20424;-70
2021/01/04 01:57:46;;;;;;;7.83;6.93;;;3.40;99.90;;;;;;5040476;28;20434;-70
2021/01/04 02:00:22;;;;;;;10.57;7.27;;;3.40;99.90;;;;;;5045839;28;20486;-70
2021/01/04 02:02:48;;;;;;;8.13;7.33;;;3.50;99.90;;;;;;5053422;28;20460;-71
2021/01/04 02:05:27;;;;;;;7.30;6.60;;;3.50;99.90;;;;;;5045296;28;20943;-71
2021/01/04 02:08:05;;;;;;;8.30;6.57;;;3.60;99.90;;;;;;5042261;28;20167;-71
2021/01/04 02:10:35;;;;;;;6.90;6.20;;;3.60;99.90;;;;;;5050332;28;21061;-71
2021/01/04 02:13:23;;;;;;;7.87;7.07;;;3.60;99.90;;;;;;5033916;28;20447;-71
2021/01/04 02:16:06;;;;;;;7.80;7.00;;;3.50;99.90;;;;;;5049117;28;20433;-71
2021/01/04 02:19:09;;;;;;;7.10;6.40;;;3.40;99.90;;;;;;5049275;28;20964;-71
2021/01/04 02:21:57;;;;;;;7.03;6.30;;;3.50;99.90;;;;;;5034204;28;20429;-71
2021/01/04 02:24:26;;;;;;;7.83;7.13;;;3.60;99.90;;;;;;5033468;28;20422;-71
2021/01/04 02:27:13;;;;;;;7.63;6.33;;;3.60;99.90;;;;;;5044023;28;20468;-71
2021/01/04 02:29:39;;;;;;;6.77;6.10;;;3.70;99.90;;;;;;5044467;28;20415;-71
2021/01/04 02:32:06;;;;;;;7.00;6.30;;;3.60;99.90;;;;;;5049122;28;20417;-71
2021/01/04 02:34:54;;;;;;;7.43;6.40;;;3.60;99.90;;;;;;5040837;28;20198;-71
2021/01/04 02:37:22;;;;;;;6.90;6.20;;;3.50;99.90;;;;;;5038765;28;20430;-71
2021/01/04 02:39:51;;;;;;;7.40;6.70;;;3.40;99.90;;;;;;5042892;28;20464;-71
2021/01/04 02:42:21;;;;;;;7.80;7.00;;;3.30;99.90;;;;;;5039272;28;20410;-71
2021/01/04 02:44:47;;;;;;;9.97;7.80;;;3.30;99.90;;;;;;5032963;28;20433;-71
2021/01/04 02:47:50;;;;;;;8.30;7.20;;;3.40;99.90;;;;;;5045284;28;20429;-71
2021/01/04 02:50:34;;;;;;;8.40;7.60;;;3.50;99.90;;;;;;5039733;28;20187;-72
2021/01/04 02:53:14;;;;;;;8.70;7.80;;;3.40;99.90;;;;;;5043892;28;20425;-71
2021/01/04 02:56:07;;;;;;;7.93;6.90;;;3.20;99.90;;;;;;5045537;28;20468;-71
2021/01/04 02:58:59;;;;;;;7.87;6.60;;;3.00;99.90;;;;;;5045326;28;20951;-72
2021/01/04 03:01:32;;;;;;;8.20;7.10;;;3.00;99.90;;;;;;5052996;28;20417;-71
2021/01/04 03:03:58;;;;;;;9.67;7.97;;;3.10;99.90;;;;;;5044430;28;20425;-71
2021/01/04 03:06:37;;;;;;;9.07;7.30;;;3.20;99.90;;;;;;5039528;28;20869;-71
2021/01/04 03:09:07;;;;;;;9.60;7.60;;;3.10;99.90;;;;;;5043642;28;20187;-71
2021/01/04 03:11:33;;;;;;;8.97;8.07;;;3.10;99.90;;;;;;5046405;28;20496;-72
2021/01/04 03:14:31;;;;;;;8.67;7.77;;;3.10;99.90;;;;;;5034077;28;20520;-71
2021/01/04 03:17:07;;;;;;;11.13;8.57;;;3.20;99.90;;;;;;5034950;28;20210;-72
2021/01/04 03:19:38;;;;;;;8.83;7.93;;;3.20;99.90;;;;;;5031854;28;20459;-71
2021/01/04 03:22:07;;;;;;;9.83;7.90;;;3.10;99.90;;;;;;5057213;28;20432;-71
2021/01/04 03:24:33;;;;;;;9.20;7.90;;;3.20;99.90;;;;;;5046914;28;20497;-71
2021/01/04 03:27:08;;;;;;;9.60;8.20;;;3.20;99.90;;;;;;5033034;28;20473;-71
2021/01/04 03:29:33;;;;;;;9.53;7.77;;;3.20;99.90;;;;;;5038211;28;20424;-71
2021/01/04 03:31:59;;;;;;;8.60;7.53;;;3.30;99.90;;;;;;5043837;28;20419;-71
2021/01/04 03:34:24;;;;;;;8.70;7.33;;;3.40;99.90;;;;;;5032683;28;20233;-71
2021/01/04 03:36:50;;;;;;;7.83;6.97;;;3.40;99.90;;;;;;5040400;28;20196;-71
2021/01/04 03:39:16;;;;;;;7.40;6.70;;;3.50;99.90;;;;;;5035630;28;20507;-71
2021/01/04 03:41:41;;;;;;;7.70;7.00;;;3.50;99.90;;;;;;5039596;28;20199;-71
2021/01/04 03:44:07;;;;;;;7.50;6.80;;;3.60;99.90;;;;;;5053057;28;20880;-71
2021/01/04 03:46:33;;;;;;;7.40;6.70;;;3.60;99.90;;;;;;5051310;28;20201;-71
2021/01/04 03:48:58;;;;;;;6.60;6.00;;;3.60;99.90;;;;;;5036408;28;20598;-71
2021/01/04 03:51:24;;;;;;;7.30;6.60;;;3.50;99.90;;;;;;5036624;28;20521;-71
2021/01/04 03:53:50;;;;;;;7.30;6.60;;;3.50;99.90;;;;;;5050649;28;20248;-71
2021/01/04 03:56:20;;;;;;;7.13;6.47;;;3.50;99.90;;;;;;5037455;28;20800;-71
2021/01/04 03:58:46;;;;;;;6.83;6.13;;;3.40;99.90;;;;;;5036391;28;20663;-71
2021/01/04 04:01:11;;;;;;;7.20;6.47;;;3.40;99.90;;;;;;5036504;28;20484;-71
2021/01/04 04:03:37;;;;;;;6.97;6.33;;;3.30;99.90;;;;;;5040200;28;20205;-71
2021/01/04 04:06:03;;;;;;;7.13;6.43;;;3.40;99.90;;;;;;5047152;28;20206;-71
2021/01/04 04:08:28;;;;;;;8.20;6.97;;;3.40;99.90;;;;;;5044077;28;20174;-71
2021/01/04 04:10:55;;;;;;;8.83;7.33;;;3.20;99.90;;;;;;5042126;28;20953;-71
2021/01/04 04:13:20;;;;;;;7.93;7.13;;;3.20;99.90;;;;;;5045664;28;20191;-71
2021/01/04 04:15:46;;;;;;;7.97;6.90;;;3.00;99.90;;;;;;5042027;28;20438;-71
2021/01/04 04:18:12;;;;;;;7.67;6.20;;;3.10;99.90;;;;;;5043874;28;20561;-71
2021/01/04 04:20:37;;;;;;;9.10;7.47;;;3.10;99.90;;;;;;5053583;28;20478;-71
2021/01/04 04:23:03;;;;;;;9.20;8.30;;;3.20;99.90;;;;;;5055191;28;20595;-71
2021/01/04 04:25:28;;;;;;;9.70;7.70;;;3.30;99.90;;;;;;5051687;28;20197;-71
2021/01/04 04:27:55;;;;;;;9.10;7.53;;;3.20;99.90;;;;;;5034793;28;20231;-72
2021/01/04 04:30:22;;;;;;;8.53;7.60;;;3.20;99.90;;;;;;5044124;28;20190;-71
2021/01/04 04:32:53;;;;;;;11.50;7.70;;;3.20;99.90;;;;;;5036120;28;20469;-72
2021/01/04 04:35:19;;;;;;;9.23;7.73;;;3.30;99.90;;;;;;5052030;28;20527;-71
2021/01/04 04:37:46;;;;;;;8.83;7.93;;;3.30;99.90;;;;;;5051026;28;20920;-71
2021/01/04 04:40:21;;;;;;;10.43;7.77;;;3.30;99.90;;;;;;5035756;28;20225;-71
2021/01/04 04:42:52;;;;;;;8.53;7.63;;;3.30;99.90;;;;;;5047555;28;20436;-72
2021/01/04 04:45:19;;;;;;;9.50;7.93;;;3.30;99.90;;;;;;5038200;28;20914;-71
2021/01/04 04:48:06;;;;;;;9.37;7.57;;;3.30;99.90;;;;;;5043442;28;20540;-71
2021/01/04 04:50:53;;;;;;;10.50;8.33;;;3.30;99.90;;;;;;5044968;28;20424;-71
2021/01/04 04:53:39;;;;;;;9.20;8.00;;;3.30;99.90;;;;;;5045626;28;20429;-71
2021/01/04 04:56:26;;;;;;;8.77;7.60;;;3.30;99.90;;;;;;5049167;28;20820;-71
2021/01/04 04:58:55;;;;;;;9.73;8.73;;;3.30;99.90;;;;;;5054120;28;20449;-71
2021/01/04 05:01:27;;;;;;;9.50;8.23;;;3.30;99.90;;;;;;5047303;28;20457;-71
2021/01/04 05:04:21;;;;;;;9.60;8.63;;;3.40;99.90;;;;;;5051363;28;20409;-71
2021/01/04 05:06:49;;;;;;;10.27;8.17;;;3.40;99.90;;;;;;5059368;28;20456;-72
2021/01/04 05:09:39;;;;;;;10.43;8.70;;;3.20;99.90;;;;;;5062287;28;20420;-71
2021/01/04 05:12:17;;;;;;;10.20;8.43;;;3.10;99.90;;;;;;5059942;28;20897;-71
2021/01/04 05:15:13;;;;;;;11.23;8.60;;;3.10;99.90;;;;;;5065271;28;20414;-72
2021/01/04 05:17:58;;;;;;;11.50;8.53;;;3.00;99.90;;;;;;5043653;28;20508;-71
2021/01/04 05:20:48;;;;;;;12.13;8.93;;;3.00;99.90;;;;;;5050221;28;20511;-71
2021/01/04 05:23:38;;;;;;;10.00;8.60;;;3.10;99.90;;;;;;5048516;28;20502;-71
2021/01/04 05:26:15;;;;;;;10.70;8.43;;;3.10;99.90;;;;;;5062170;28;20440;-71
2021/01/04 05:29:12;;;;;;;10.27;9.17;;;3.10;99.90;;;;;;5053591;28;20435;-71
2021/01/04 05:31:43;;;;;;;9.83;8.73;;;3.10;99.90;;;;;;5053743;28;20408;-71
2021/01/04 05:34:39;;;;;;;11.70;9.17;;;3.20;99.90;;;;;;5043889;28;20441;-71
2021/01/04 05:37:24;;;;;;;10.37;8.73;;;3.20;99.90;;;;;;5053473;28;20433;-71
2021/01/04 05:40:05;;;;;;;11.33;9.37;;;3.30;99.90;;;;;;5053093;28;20773;-71
2021/01/04 05:42:36;;;;;;;11.33;8.97;;;3.20;99.90;;;;;;5038419;28;20511;-71
2021/01/04 05:45:13;;;;;;;12.63;9.97;;;3.30;99.90;;;;;;5053137;28;20426;-71
2021/01/04 05:48:23;;;;;;;10.17;8.80;;;3.20;99.90;;;;;;5037164;28;20754;-71
2021/01/04 05:51:08;;;;;;;13.20;9.53;;;3.20;99.90;;;;;;5031057;28;20953;-71
2021/01/04 05:53:33;;;;;;;9.80;8.50;;;3.10;99.90;;;;;;5048976;28;20905;-71
2021/01/04 05:56:00;;;;;;;10.00;9.00;;;3.10;99.90;;;;;;5052931;28;20482;-71
2021/01/04 05:58:31;;;;;;;9.00;7.90;;;3.00;99.90;;;;;;5044298;28;20174;-71
2021/01/04 06:01:11;;;;;;;12.47;10.30;;;3.00;99.90;;;;;;5045101;28;20444;-72
2021/01/04 06:03:37;;;;;;;10.23;9.17;;;3.10;99.90;;;;;;5045407;28;20787;-72
2021/01/04 06:06:26;;;;;;;11.47;9.90;;;3.00;99.90;;;;;;5051646;28;20437;-71
2021/01/04 06:09:11;;;;;;;10.63;9.00;;;3.10;99.90;;;;;;5044667;28;20409;-71
2021/01/04 06:11:57;;;;;;;10.20;8.90;;;3.30;99.90;;;;;;5046750;28;20425;-71
2021/01/04 06:14:25;;;;;;;10.47;8.93;;;3.30;99.90;;;;;;5040158;28;20417;-71
2021/01/04 06:17:17;;;;;;;11.20;8.57;;;3.30;99.90;;;;;;5033683;28;20488;-71
2021/01/04 06:19:51;;;;;;;12.93;10.40;;;3.30;99.90;;;;;;5041013;28;20472;-71
2021/01/04 06:22:17;;;;;;;13.00;9.67;;;3.40;99.90;;;;;;5056804;28;20423;-71
2021/01/04 06:24:44;;;;;;;11.40;9.17;;;3.40;99.90;;;;;;5038909;28;20412;-71
2021/01/04 06:27:29;;;;;;;10.57;8.57;;;3.30;99.90;;;;;;5051763;28;20480;-71
2021/01/04 06:29:55;;;;;;;13.53;9.87;;;3.30;99.90;;;;;;5052661;28;20436;-73
2021/01/04 06:32:27;;;;;;;11.73;9.47;;;3.40;99.90;;;;;;5041792;28;20417;-71
2021/01/04 06:35:17;;;;;;;9.40;8.30;;;3.50;99.90;;;;;;5039557;28;20433;-71
2021/01/04 06:37:44;;;;;;;11.97;9.70;;;3.50;99.90;;;;;;5038081;28;20431;-71
2021/01/04 06:40:32;;;;;;;10.47;9.23;;;3.50;99.90;;;;;;5033688;28;20936;-71
2021/01/04 06:43:07;;;;;;;11.40;8.80;;;3.50;99.90;;;;;;5034539;28;20499;-72
2021/01/04 06:46:00;;;;;;;9.43;8.43;;;3.30;99.90;;;;;;5047050;28;20440;-71
2021/01/04 06:48:57;;;;;;;10.20;8.93;;;3.30;99.90;;;;;;5049736;28;20492;-71
2021/01/04 06:51:57;;;;;;;9.70;8.70;;;3.40;99.90;;;;;;5038777;28;20535;-71
2021/01/04 06:54:50;;;;;;;10.23;8.80;;;3.40;99.90;;;;;;5045284;28;20915;-71
2021/01/04 06:57:40;;;;;;;11.80;9.73;;;3.30;99.90;;;;;;5049955;28;20535;-71
2021/01/04 07:00:35;;;;;;;9.83;8.20;;;3.30;99.90;;;;;;5045224;28;20466;-71
2021/01/04 07:03:20;;;;;;;11.00;9.20;;;3.30;99.90;;;;;;5042177;28;20417;-71
2021/01/04 07:06:00;;;;;;;10.10;8.30;;;3.40;99.90;;;;;;5040978;28;20445;-71
2021/01/04 07:08:59;;;;;;;9.10;8.10;;;3.40;99.90;;;;;;5035616;28;20774;-72
2021/01/04 07:11:40;;;;;;;8.97;8.03;;;3.50;99.90;;;;;;5035839;28;20426;-71
2021/01/04 07:14:33;;;;;;;10.90;8.17;;;3.50;99.90;;;;;;5036089;28;20510;-71
2021/01/04 07:17:31;;;;;;;9.23;7.23;;;3.50;99.90;;;;;;5042779;28;20462;-71
2021/01/04 07:20:14;;;;;;;9.27;8.27;;;3.50;99.90;;;;;;5054384;28;20953;-71
2021/01/04 07:23:13;;;;;;;9.03;8.13;;;3.50;99.90;;;;;;5047878;28;20459;-71
2021/01/04 07:25:54;;;;;;;8.53;7.67;;;3.50;99.90;;;;;;5044943;28;20802;-72
2021/01/04 07:28:36;;;;;;;8.10;7.30;;;3.60;99.90;;;;;;5045409;28;20841;-71
2021/01/04 07:31:29;;;;;;;8.90;8.00;;;3.60;99.90;;;;;;5044960;28;20527;-71
2021/01/04 07:34:15;;;;;;;10.17;8.70;;;3.60;99.90;;;;;;5041998;28;20469;-71
2021/01/04 07:36:51;;;;;;;12.27;10.07;;;3.50;99.90;;;;;;5047715;28;20807;-71
2021/01/04 07:39:44;;;;;;;9.73;8.70;;;3.50;99.90;;;;;;5047419;28;20512;-71
2021/01/04 07:42:48;;;;;;;9.90;8.60;;;3.30;99.90;;;;;;5035075;28;20422;-71
2021/01/04 07:45:54;;;;;;;11.33;8.97;;;3.30;99.90;;;;;;5035577;28;20426;-71
2021/01/04 07:48:34;;;;;;;12.07;9.20;;;3.40;99.90;;;;;;5021093;28;20824;-71
2021/01/04 07:51:32;;;;;;;10.77;9.67;;;3.30;99.90;;;;;;5020229;28;20521;-72
2021/01/04 07:54:06;;;;;;;10.13;9.07;;;3.40;99.90;;;;;;5029368;28;20430;-71
2021/01/04 07:57:05;;;;;;;12.33;8.97;;;3.40;99.90;;;;;;5033835;28;20458;-72
2021/01/04 07:59:39;;;;;;;12.37;10.13;;;3.50;99.90;;;;;;5022131;28;20536;-72
2021/01/04 08:02:15;;;;;;;12.00;9.40;;;3.50;99.90;;;;;;5027857;28;20541;-71
2021/01/04 08:05:14;;;;;;;12.60;10.03;;;3.50;99.90;;;;;;5003046;28;20440;-71
2021/01/04 08:07:48;;;;;;;10.77;9.33;;;3.50;99.90;;;;;;5023950;28;20428;-70
2021/01/04 08:11:09;;;;;;;11.90;10.10;;;3.40;99.90;;;;;;5021791;28;20431;-71
2021/01/04 08:14:11;;;;;;;10.83;9.47;;;3.30;99.90;;;;;;4975200;28;20530;-70
2021/01/04 08:16:45;;;;;;;11.27;8.70;;;3.40;99.90;;;;;;5010373;28;20861;-71
2021/01/04 08:19:13;;;;;;;12.00;9.60;;;3.40;99.90;;;;;;4987658;28;20589;-71
2021/01/04 08:21:54;;;;;;;11.93;9.80;;;3.40;99.90;;;;;;5000615;28;20773;-71
2021/01/04 08:24:50;;;;;;;10.80;9.70;;;3.30;99.90;;;;;;5007459;28;20946;-72
2021/01/04 08:27:45;;;;;;;11.07;9.73;;;3.20;99.90;;;;;;4987143;28;20558;-72
2021/01/04 08:30:22;;;;;;;13.23;10.47;;;3.20;99.90;;;;;;4978369;28;20441;-71
2021/01/04 08:32:51;;;;;;;12.77;11.30;;;3.30;99.90;;;;;;5012694;28;20426;-72
2021/01/04 08:35:40;;;;;;;13.97;11.37;;;3.30;99.90;;;;;;4996802;28;20817;-71
2021/01/04 08:38:25;;;;;;;12.10;10.30;;;3.40;99.90;;;;;;4999630;28;20740;-70
2021/01/04 08:41:08;;;;;;;15.13;10.43;;;3.40;99.90;;;;;;5027496;28;20499;-70
2021/01/04 08:43:41;;;;;;;13.80;10.37;;;3.40;99.90;;;;;;5011931;28;20528;-70
2021/01/04 08:46:16;;;;;;;12.33;10.40;;;3.40;99.90;;;;;;5005173;28;20438;-70
2021/01/04 08:48:42;;;;;;;14.47;11.00;;;3.40;99.90;;;;;;5065666;28;20457;-71
2021/01/04 08:51:26;;;;;;;12.83;10.70;;;3.50;99.90;;;;;;5065817;28;20457;-70
2021/01/04 08:54:00;;;;;;;13.17;11.00;;;3.50;99.90;;;;;;5046428;28;20214;-71
2021/01/04 08:56:49;;;;;;;12.77;10.00;;;3.60;99.90;;;;;;5040851;28;20813;-70
2021/01/04 08:59:22;;;;;;;11.57;9.57;;;3.50;99.90;;;;;;5044448;28;20455;-70
2021/01/04 09:01:58;;;;;;;13.33;10.80;;;3.50;99.90;;;;;;5050734;28;20429;-70
2021/01/04 09:04:31;;;;;;;11.13;9.70;;;3.50;99.90;;;;;;5050387;28;20428;-70
2021/01/04 09:07:16;;;;;;;10.77;9.67;;;3.50;99.90;;;;;;5048005;28;20447;-70
2021/01/04 09:09:46;;;;;;;9.20;8.13;;;3.50;99.90;;;;;;5048009;28;20728;-70
2021/01/04 09:12:19;;;;;;;12.47;10.00;;;3.40;99.90;;;;;;5045030;28;20882;-71
2021/01/04 09:14:44;;;;;;;11.27;9.13;;;3.50;99.90;;;;;;5046989;28;20431;-70
2021/01/04 09:17:32;;;;;;;11.57;9.70;;;3.50;99.90;;;;;;5052309;28;20449;-71
2021/01/04 09:20:07;;;;;;;11.60;9.40;;;3.50;99.90;;;;;;5052929;28;20340;-70
2021/01/04 09:22:33;;;;;;;11.30;8.93;;;3.50;99.90;;;;;;5048202;28;20411;-70
2021/01/04 09:24:58;;;;;;;11.53;10.00;;;3.50;99.90;;;;;;5048508;28;20441;-70
2021/01/04 09:27:36;;;;;;;11.50;9.17;;;3.50;99.90;;;;;;5045112;28;20791;-71
2021/01/04 09:30:09;;;;;;;12.87;10.80;;;3.60;99.90;;;;;;5052577;28;20177;-70
2021/01/04 09:32:39;;;;;;;13.03;9.93;;;3.50;99.90;;;;;;5045796;28;20412;-70
2021/01/04 09:35:08;;;;;;;13.50;10.03;;;3.50;99.90;;;;;;5053237;28;20408;-70
2021/01/04 09:37:37;;;;;;;12.20;10.60;;;3.60;99.90;;;;;;5048256;28;20415;-71
2021/01/04 09:40:09;;;;;;;10.50;8.50;;;3.60;99.90;;;;;;5045550;28;20468;-70
2021/01/04 09:42:36;;;;;;;11.87;9.70;;;3.60;99.90;;;;;;5050201;28;20844;-70
2021/01/04 09:45:12;;;;;;;10.83;9.27;;;3.50;99.90;;;;;;5058344;28;20419;-70
2021/01/04 09:47:45;;;;;;;11.37;9.10;;;3.50;99.90;;;;;;5052606;28;20496;-70
2021/01/04 09:50:36;;;;;;;11.27;9.00;;;3.60;99.90;;;;;;5051522;28;20516;-70
2021/01/04 09:53:25;;;;;;;10.30;8.90;;;3.50;99.90;;;;;;5049492;28;20425;-71
2021/01/04 09:55:58;;;;;;;11.10;9.30;;;3.40;99.90;;;;;;5048189;28;20444;-72
2021/01/04 09:58:23;;;;;;;11.27;9.60;;;3.50;99.90;;;;;;5046815;28;20608;-71
2021/01/04 10:00:49;;;;;;;9.07;8.00;;;3.60;99.90;;;;;;5050952;28;20509;-72
2021/01/04 10:03:22;;;;;;;10.37;8.60;;;3.60;99.90;;;;;;5049671;28;20544;-71
2021/01/04 10:05:49;;;;;;;8.23;7.37;;;3.60;99.90;;;;;;5045082;28;20186;-71
2021/01/04 10:08:19;;;;;;;9.10;8.20;;;3.50;99.90;;;;;;5043630;28;20441;-71
2021/01/04 10:10:59;;;;;;;8.63;7.30;;;3.60;99.90;;;;;;5052402;28;20431;-72
2021/01/04 10:13:27;;;;;;;9.83;8.03;;;3.70;99.90;;;;;;5041194;28;20905;-70
2021/01/04 10:15:55;;;;;;;10.20;8.30;;;3.60;99.90;;;;;;5047170;28;20555;-70
2021/01/04 10:18:38;;;;;;;8.97;8.07;;;3.60;99.90;;;;;;5051809;28;20501;-70
2021/01/04 10:21:05;;;;;;;8.77;7.57;;;3.70;99.90;;;;;;5048209;28;20417;-70
2021/01/04 10:23:35;;;;;;;8.60;7.47;;;3.70;99.90;;;;;;5052278;28;20511;-70
2021/01/04 10:26:03;;;;;;;7.90;6.73;;;3.80;99.90;;;;;;5045840;28;20454;-70
2021/01/04 10:28:35;;;;;;;8.10;7.30;;;3.60;99.90;;;;;;5046538;28;20484;-70
2021/01/04 10:31:17;;;;;;;10.70;8.37;;;3.60;99.90;;;;;;5047026;28;20424;-70
2021/01/04 10:33:42;;;;;;;8.40;7.23;;;3.60;99.90;;;;;;5042559;28;20841;-70
2021/01/04 10:36:19;;;;;;;11.97;7.93;;;3.60;99.90;;;;;;5050423;28;20521;-70
2021/01/04 10:38:58;;;;;;;9.53;7.60;;;3.40;99.90;;;;;;5050774;28;20191;-70
2021/01/04 10:41:28;;;;;;;8.50;7.67;;;3.50;99.90;;;;;;5042671;28;20522;-70
2021/01/04 10:44:07;;;;;;;9.33;7.57;;;3.50;99.90;;;;;;5047426;28;20415;-70
2021/01/04 10:46:37;;;;;;;9.73;7.97;;;3.60;99.90;;;;;;5040830;28;20549;-71
2021/01/04 10:49:10;;;;;;;9.70;7.37;;;3.50;99.90;;;;;;5052543;28;20417;-70
2021/01/04 10:51:39;;;;;;;9.50;7.30;;;3.60;99.90;;;;;;5056181;28;20426;-70
2021/01/04 10:54:18;;;;;;;9.70;7.90;;;3.50;99.90;;;;;;5055518;28;20443;-70
2021/01/04 10:56:55;;;;;;;9.80;8.20;;;3.60;99.90;;;;;;5055828;28;20525;-70
2021/01/04 10:59:36;;;;;;;9.90;8.83;;;3.50;99.90;;;;;;5056583;28;20461;-70
2021/01/04 11:02:02;;;;;;;8.07;7.27;;;3.60;99.90;;;;;;5041713;28;20445;-70
2021/01/04 11:04:28;;;;;;;8.50;7.60;;;3.70;99.90;;;;;;5051938;28;20430;-71
2021/01/04 11:07:05;;;;;;;9.10;8.20;;;3.70;99.90;;;;;;5056106;28;20959;-71
2021/01/04 11:09:40;;;;;;;8.90;8.00;;;3.60;99.90;;;;;;5055984;28;20199;-70
2021/01/04 11:12:09;;;;;;;7.47;6.60;;;3.70;99.90;;;;;;5056513;28;20427;-70
2021/01/04 11:14:37;;;;;;;8.67;7.77;;;3.70;99.90;;;;;;5055419;28;20422;-70
2021/01/04 11:17:21;;;;;;;7.80;6.90;;;3.70;99.90;;;;;;5056051;28;20492;-70
2021/01/04 11:19:48;;;;;;;8.87;7.80;;;3.70;99.90;;;;;;5055973;28;20457;-70
2021/01/04 11:22:13;;;;;;;10.00;6.57;;;3.80;99.90;;;;;;5055815;28;20440;-71
2021/01/04 11:24:39;;;;;;;8.03;7.27;;;3.60;99.90;;;;;;5046320;28;20480;-70
2021/01/04 11:27:05;;;;;;;8.00;6.50;;;3.60;99.90;;;;;;5040596;28;20200;-70
2021/01/04 11:29:31;;;;;;;8.03;7.27;;;3.60;99.90;;;;;;5040285;28;20410;-70
2021/01/04 11:31:56;;;;;;;9.10;7.50;;;3.50;99.90;;;;;;5036357;28;20418;-70
2021/01/04 11:34:22;;;;;;;6.77;6.00;;;3.60;99.90;;;;;;5050644;28;20190;-70
2021/01/04 11:36:47;;;;;;;8.50;6.97;;;3.40;99.90;;;;;;5047932;28;20599;-70
2021/01/04 11:39:15;;;;;;;8.57;6.00;;;3.50;99.90;;;;;;5047264;28;20591;-69
2021/01/04 11:41:42;;;;;;;7.57;6.43;;;3.60;99.90;;;;;;5046749;28;20228;-70
2021/01/04 11:44:08;;;;;;;7.70;6.63;;;3.70;99.90;;;;;;5051323;28;20418;-70
2021/01/04 11:46:34;;;;;;;7.50;6.67;;;3.80;99.90;;;;;;5043446;28;20504;-70
2021/01/04 11:48:59;;;;;;;8.80;7.20;;;3.90;99.90;;;;;;5047561;28;20646;-70
2021/01/04 11:51:27;;;;;;;6.70;6.10;;;3.90;99.90;;;;;;5047474;28;20222;-70
2021/01/04 11:53:54;;;;;;;7.30;6.60;;;3.90;99.90;;;;;;5051943;28;20182;-70
2021/01/04 11:56:22;;;;;;;7.17;6.43;;;3.80;99.90;;;;;;5045097;28;20450;-70
2021/01/04 11:58:47;;;;;;;7.87;6.50;;;4.00;99.90;;;;;;5053896;28;20460;-70
2021/01/04 12:01:14;;;;;;;7.00;6.30;;;4.00;99.90;;;;;;5054443;28;20418;-70
2021/01/04 12:03:39;;;;;;;7.17;6.53;;;4.00;99.90;;;;;;5047805;28;20409;-70
2021/01/04 12:06:05;;;;;;;10.63;6.73;;;4.00;99.90;;;;;;5054897;28;20449;-70
2021/01/04 12:08:32;;;;;;;8.73;7.13;;;4.00;99.90;;;;;;5048857;28;20550;-70
2021/01/04 12:10:58;;;;;;;8.97;7.30;;;4.00;99.90;;;;;;5047947;28;20422;-70
2021/01/04 12:13:24;;;;;;;7.70;6.03;;;3.90;99.90;;;;;;5063474;28;20421;-70
2021/01/04 12:15:53;;;;;;;6.70;6.10;;;4.00;99.90;;;;;;5067775;28;20540;-71
2021/01/04 12:18:20;;;;;;;7.13;6.27;;;4.00;99.90;;;;;;5053287;28;20502;-70
2021/01/04 12:20:46;;;;;;;8.10;7.10;;;4.00;99.90;;;;;;5071654;28;20472;-71
2021/01/04 12:23:12;;;;;;;6.70;6.03;;;4.00;99.90;;;;;;5075804;28;20424;-71
2021/01/04 12:25:37;;;;;;;6.63;5.63;;;4.10;99.90;;;;;;5060093;28;20445;-70
2021/01/04 12:28:04;;;;;;;7.57;6.20;;;4.10;99.90;;;;;;5052895;28;20181;-70
2021/01/04 12:30:30;;;;;;;7.50;6.37;;;4.20;99.90;;;;;;5048813;28;20189;-71
2021/01/04 12:32:55;;;;;;;7.40;6.60;;;4.20;99.90;;;;;;5050605;28;20451;-71
2021/01/04 12:35:21;;;;;;;8.50;6.37;;;4.30;99.90;;;;;;5054121;28;20484;-71
2021/01/04 12:37:47;;;;;;;6.37;5.77;;;4.30;99.90;;;;;;5049370;28;20260;-71
2021/01/04 12:40:16;;;;;;;6.70;6.00;;;4.30;99.90;;;;;;5044332;28;20549;-71
2021/01/04 12:42:42;;;;;;;7.13;5.70;;;4.30;99.90;;;;;;5048129;28;20584;-71
2021/01/04 12:45:08;;;;;;;7.40;6.47;;;4.40;99.90;;;;;;5053941;28;20419;-71
2021/01/04 12:47:34;;;;;;;7.80;5.33;;;4.30;99.90;;;;;;5054014;28;20184;-71
2021/01/04 12:50:00;;;;;;;6.33;5.70;;;4.30;99.90;;;;;;5049481;28;20771;-71
2021/01/04 12:52:25;;;;;;;6.40;5.10;;;4.40;99.90;;;;;;5045122;28;20181;-71
2021/01/04 12:54:51;;;;;;;7.30;6.13;;;4.40;99.90;;;;;;5045904;28;20211;-71
2021/01/04 12:57:17;;;;;;;6.63;5.93;;;4.40;99.90;;;;;;5050612;28;20205;-71
2021/01/04 12:59:43;;;;;;;6.17;5.57;;;4.50;99.90;;;;;;5040330;28;20212;-71
2021/01/04 13:02:10;;;;;;;6.83;6.13;;;4.50;99.90;;;;;;5049738;28;20509;-70
2021/01/04 13:04:40;;;;;;;7.60;6.80;;;4.50;99.90;;;;;;5045058;28;20185;-70
2021/01/04 13:07:06;;;;;;;6.40;5.57;;;4.50;99.90;;;;;;5054108;28;20428;-71
2021/01/04 13:09:32;;;;;;;8.17;5.90;;;4.50;99.90;;;;;;5047402;28;20429;-71
2021/01/04 13:11:57;;;;;;;6.87;6.20;;;4.50;99.90;;;;;;5052262;28;20277;-72
2021/01/04 13:14:23;;;;;;;8.33;6.20;;;4.50;99.90;;;;;;5060924;28;20292;-70
2021/01/04 13:16:50;;;;;;;7.70;6.77;;;4.50;99.90;;;;;;5045684;28;20235;-71
2021/01/04 13:19:16;;;;;;;6.67;6.03;;;4.50;99.90;;;;;;5049977;28;20458;-70
2021/01/04 13:21:42;;;;;;;7.80;6.27;;;4.50;99.90;;;;;;5044311;28;20930;-71
2021/01/04 13:24:11;;;;;;;7.50;6.23;;;4.50;99.90;;;;;;5054203;28;20423;-70
2021/01/04 13:26:48;;;;;;;7.20;6.40;;;4.50;99.90;;;;;;5048425;28;20459;-70
2021/01/04 13:29:16;;;;;;;8.23;6.80;;;4.50;99.90;;;;;;5047880;28;20442;-71
2021/01/04 13:31:41;;;;;;;8.97;6.13;;;4.40;99.90;;;;;;5045636;28;20802;-73
2021/01/04 13:34:08;;;;;;;9.93;7.80;;;4.40;99.90;;;;;;5049137;28;20451;-72
2021/01/04 13:36:34;;;;;;;11.13;7.50;;;4.50;99.90;;;;;;5037039;28;20225;-70
2021/01/04 13:39:00;;;;;;;9.10;7.60;;;4.50;99.90;;;;;;5055897;28;20459;-71